sensor_id;sensor_type;location;lat;lon;timestamp;temperature;humidity
20066;DHT22;10193;48.884;9.182;2023-06-04T00:02:01;20.00;40.20
20066;DHT22;10193;48.884;9.182;2023-06-04T00:04:28;20.00;40.30
20066;DHT22;10193;48.884;9.182;2023-06-04T00:06:55;19.90;40.30
20066;DHT22;10193;48.884;9.182;2023-06-04T00:09:23;19.90;40.40
20066;DHT22;10193;48.884;9.182;2023-06-04T00:11:50;19.90;40.40
20066;DHT22;10193;48.884;9.182;2023-06-04T00:14:16;19.80;40.40
20066;DHT22;10193;48.884;9.182;2023-06-04T00:16:43;19.80;40.40
20066;DHT22;10193;48.884;9.182;2023-06-04T00:19:10;19.80;40.40
20066;DHT22;10193;48.884;9.182;2023-06-04T00:21:37;19.80;40.50
20066;DHT22;10193;48.884;9.182;2023-06-04T00:24:03;19.80;40.40
20066;DHT22;10193;48.884;9.182;2023-06-04T00:26:32;19.70;40.30
20066;DHT22;10193;48.884;9.182;2023-06-04T00:28:58;19.70;40.30
20066;DHT22;10193;48.884;9.182;2023-06-04T00:31:25;19.70;40.20
20066;DHT22;10193;48.884;9.182;2023-06-04T00:33:51;19.60;40.20
20066;DHT22;10193;48.884;9.182;2023-06-04T00:36:18;19.60;40.20
20066;DHT22;10193;48.884;9.182;2023-06-04T00:38:45;19.60;40.20
20066;DHT22;10193;48.884;9.182;2023-06-04T00:41:12;19.50;40.30
20066;DHT22;10193;48.884;9.182;2023-06-04T00:43:40;19.50;40.30
20066;DHT22;10193;48.884;9.182;2023-06-04T00:46:11;19.50;40.40
20066;DHT22;10193;48.884;9.182;2023-06-04T00:48:43;19.40;40.40
20066;DHT22;10193;48.884;9.182;2023-06-04T00:51:10;19.30;40.30
20066;DHT22;10193;48.884;9.182;2023-06-04T00:53:37;19.30;40.40
20066;DHT22;10193;48.884;9.182;2023-06-04T00:56:04;19.30;40.40
20066;DHT22;10193;48.884;9.182;2023-06-04T00:58:31;19.20;40.30
20066;DHT22;10193;48.884;9.182;2023-06-04T01:01:00;19.20;40.30
20066;DHT22;10193;48.884;9.182;2023-06-04T01:03:32;19.20;40.50
20066;DHT22;10193;48.884;9.182;2023-06-04T01:06:07;19.10;40.40
20066;DHT22;10193;48.884;9.182;2023-06-04T01:08:36;19.10;40.50
20066;DHT22;10193;48.884;9.182;2023-06-04T01:11:03;19.00;40.40
20066;DHT22;10193;48.884;9.182;2023-06-04T01:13:30;19.00;40.50
20066;DHT22;10193;48.884;9.182;2023-06-04T01:15:56;18.90;40.40
20066;DHT22;10193;48.884;9.182;2023-06-04T01:18:27;18.90;40.50
20066;DHT22;10193;48.884;9.182;2023-06-04T01:20:57;18.80;40.50
20066;DHT22;10193;48.884;9.182;2023-06-04T01:23:28;18.80;40.60
20066;DHT22;10193;48.884;9.182;2023-06-04T01:26:00;18.80;40.60
20066;DHT22;10193;48.884;9.182;2023-06-04T01:28:28;18.70;40.60
20066;DHT22;10193;48.884;9.182;2023-06-04T01:30:56;18.70;40.60
20066;DHT22;10193;48.884;9.182;2023-06-04T01:33:26;18.60;40.50
20066;DHT22;10193;48.884;9.182;2023-06-04T01:35:53;18.60;40.50
20066;DHT22;10193;48.884;9.182;2023-06-04T01:38:20;18.50;40.50
20066;DHT22;10193;48.884;9.182;2023-06-04T01:40:47;18.50;40.50
20066;DHT22;10193;48.884;9.182;2023-06-04T01:43:14;18.50;40.50
20066;DHT22;10193;48.884;9.182;2023-06-04T01:45:41;18.40;40.40
20066;DHT22;10193;48.884;9.182;2023-06-04T01:48:07;18.40;40.50
20066;DHT22;10193;48.884;9.182;2023-06-04T01:50:35;18.40;40.50
20066;DHT22;10193;48.884;9.182;2023-06-04T01:53:02;18.30;40.40
20066;DHT22;10193;48.884;9.182;2023-06-04T01:55:29;18.30;41.00
20066;DHT22;10193;48.884;9.182;2023-06-04T01:57:59;18.30;40.40
20066;DHT22;10193;48.884;9.182;2023-06-04T02:00:26;18.30;40.30
20066;DHT22;10193;48.884;9.182;2023-06-04T02:02:52;18.20;40.20
20066;DHT22;10193;48.884;9.182;2023-06-04T02:05:21;18.20;40.20
20066;DHT22;10193;48.884;9.182;2023-06-04T02:07:49;18.10;40.10
20066;DHT22;10193;48.884;9.182;2023-06-04T02:10:18;18.10;40.10
20066;DHT22;10193;48.884;9.182;2023-06-04T02:12:53;18.20;40.20
20066;DHT22;10193;48.884;9.182;2023-06-04T02:15:21;18.10;40.30
20066;DHT22;10193;48.884;9.182;2023-06-04T02:17:48;18.00;40.20
20066;DHT22;10193;48.884;9.182;2023-06-04T02:20:15;18.00;40.30
20066;DHT22;10193;48.884;9.182;2023-06-04T02:22:42;18.00;40.50
20066;DHT22;10193;48.884;9.182;2023-06-04T02:25:10;17.90;40.50
20066;DHT22;10193;48.884;9.182;2023-06-04T02:27:37;17.90;40.60
20066;DHT22;10193;48.884;9.182;2023-06-04T02:30:05;17.90;40.80
20066;DHT22;10193;48.884;9.182;2023-06-04T02:32:32;17.90;40.90
20066;DHT22;10193;48.884;9.182;2023-06-04T02:35:01;17.80;40.80
20066;DHT22;10193;48.884;9.182;2023-06-04T02:37:28;17.80;40.90
20066;DHT22;10193;48.884;9.182;2023-06-04T02:39:55;17.70;40.90
20066;DHT22;10193;48.884;9.182;2023-06-04T02:42:23;17.70;40.90
20066;DHT22;10193;48.884;9.182;2023-06-04T02:44:50;17.60;40.90
20066;DHT22;10193;48.884;9.182;2023-06-04T02:47:16;17.60;41.10
20066;DHT22;10193;48.884;9.182;2023-06-04T02:49:44;17.60;41.10
20066;DHT22;10193;48.884;9.182;2023-06-04T02:52:12;17.60;41.20
20066;DHT22;10193;48.884;9.182;2023-06-04T02:54:38;17.50;41.20
20066;DHT22;10193;48.884;9.182;2023-06-04T02:57:06;17.40;41.20
20066;DHT22;10193;48.884;9.182;2023-06-04T02:59:35;17.40;41.30
20066;DHT22;10193;48.884;9.182;2023-06-04T03:02:02;17.40;41.40
20066;DHT22;10193;48.884;9.182;2023-06-04T03:04:28;17.30;41.40
20066;DHT22;10193;48.884;9.182;2023-06-04T03:06:59;17.30;41.50
20066;DHT22;10193;48.884;9.182;2023-06-04T03:09:26;17.20;41.60
20066;DHT22;10193;48.884;9.182;2023-06-04T03:11:53;17.20;41.60
20066;DHT22;10193;48.884;9.182;2023-06-04T03:14:19;17.20;42.30
20066;DHT22;10193;48.884;9.182;2023-06-04T03:16:47;17.10;41.70
20066;DHT22;10193;48.884;9.182;2023-06-04T03:19:14;17.10;41.80
20066;DHT22;10193;48.884;9.182;2023-06-04T03:21:42;17.00;41.80
20066;DHT22;10193;48.884;9.182;2023-06-04T03:24:10;17.10;41.90
20066;DHT22;10193;48.884;9.182;2023-06-04T03:26:36;17.10;42.00
20066;DHT22;10193;48.884;9.182;2023-06-04T03:29:03;17.00;42.00
20066;DHT22;10193;48.884;9.182;2023-06-04T03:31:30;17.00;42.00
20066;DHT22;10193;48.884;9.182;2023-06-04T03:33:59;17.00;42.00
20066;DHT22;10193;48.884;9.182;2023-06-04T03:36:25;16.90;41.90
20066;DHT22;10193;48.884;9.182;2023-06-04T03:38:57;16.90;41.90
20066;DHT22;10193;48.884;9.182;2023-06-04T03:41:23;16.90;42.00
20066;DHT22;10193;48.884;9.182;2023-06-04T03:43:51;16.80;41.90
20066;DHT22;10193;48.884;9.182;2023-06-04T03:46:18;16.90;42.00
20066;DHT22;10193;48.884;9.182;2023-06-04T03:48:44;16.80;42.00
20066;DHT22;10193;48.884;9.182;2023-06-04T03:51:13;16.80;42.10
20066;DHT22;10193;48.884;9.182;2023-06-04T03:53:39;16.70;42.10
20066;DHT22;10193;48.884;9.182;2023-06-04T03:56:07;16.70;42.10
20066;DHT22;10193;48.884;9.182;2023-06-04T03:58:35;16.70;42.80
20066;DHT22;10193;48.884;9.182;2023-06-04T04:01:01;16.70;42.20
20066;DHT22;10193;48.884;9.182;2023-06-04T04:03:30;16.70;42.90
20066;DHT22;10193;48.884;9.182;2023-06-04T04:05:56;16.60;42.20
20066;DHT22;10193;48.884;9.182;2023-06-04T04:08:25;16.70;42.30
20066;DHT22;10193;48.884;9.182;2023-06-04T04:10:56;16.70;42.30
20066;DHT22;10193;48.884;9.182;2023-06-04T04:13:23;16.70;42.20
20066;DHT22;10193;48.884;9.182;2023-06-04T04:15:50;16.70;42.20
20066;DHT22;10193;48.884;9.182;2023-06-04T04:18:17;16.60;42.20
20066;DHT22;10193;48.884;9.182;2023-06-04T04:20:45;16.60;42.30
20066;DHT22;10193;48.884;9.182;2023-06-04T04:23:12;16.60;42.30
20066;DHT22;10193;48.884;9.182;2023-06-04T04:25:40;16.60;42.30
20066;DHT22;10193;48.884;9.182;2023-06-04T04:28:09;16.70;42.50
20066;DHT22;10193;48.884;9.182;2023-06-04T04:30:36;16.70;42.60
20066;DHT22;10193;48.884;9.182;2023-06-04T04:33:03;16.80;42.70
20066;DHT22;10193;48.884;9.182;2023-06-04T04:35:30;16.90;42.90
20066;DHT22;10193;48.884;9.182;2023-06-04T04:37:58;17.00;43.00
20066;DHT22;10193;48.884;9.182;2023-06-04T04:40:24;17.20;43.10
20066;DHT22;10193;48.884;9.182;2023-06-04T04:42:52;17.40;43.10
20066;DHT22;10193;48.884;9.182;2023-06-04T04:45:19;17.60;43.00
20066;DHT22;10193;48.884;9.182;2023-06-04T04:47:46;17.80;43.00
20066;DHT22;10193;48.884;9.182;2023-06-04T04:50:13;18.00;42.90
20066;DHT22;10193;48.884;9.182;2023-06-04T04:52:40;18.20;42.50
20066;DHT22;10193;48.884;9.182;2023-06-04T04:55:07;18.40;42.40
20066;DHT22;10193;48.884;9.182;2023-06-04T04:57:34;18.50;42.30
20066;DHT22;10193;48.884;9.182;2023-06-04T05:00:02;18.70;42.30
20066;DHT22;10193;48.884;9.182;2023-06-04T05:02:30;18.80;42.30
20066;DHT22;10193;48.884;9.182;2023-06-04T05:04:57;19.10;42.30
20066;DHT22;10193;48.884;9.182;2023-06-04T05:07:24;19.20;41.80
20066;DHT22;10193;48.884;9.182;2023-06-04T05:09:51;19.40;41.50
20066;DHT22;10193;48.884;9.182;2023-06-04T05:12:18;19.40;41.10
20066;DHT22;10193;48.884;9.182;2023-06-04T05:14:45;19.40;40.70
20066;DHT22;10193;48.884;9.182;2023-06-04T05:17:14;19.30;40.50
20066;DHT22;10193;48.884;9.182;2023-06-04T05:19:42;19.20;40.30
20066;DHT22;10193;48.884;9.182;2023-06-04T05:22:08;19.10;40.30
20066;DHT22;10193;48.884;9.182;2023-06-04T05:24:35;19.00;40.30
20066;DHT22;10193;48.884;9.182;2023-06-04T05:27:01;18.90;40.30
20066;DHT22;10193;48.884;9.182;2023-06-04T05:29:29;18.80;40.40
20066;DHT22;10193;48.884;9.182;2023-06-04T05:31:56;18.70;40.50
20066;DHT22;10193;48.884;9.182;2023-06-04T05:34:24;18.50;40.50
20066;DHT22;10193;48.884;9.182;2023-06-04T05:36:52;18.50;40.60
20066;DHT22;10193;48.884;9.182;2023-06-04T05:39:19;18.40;40.90
20066;DHT22;10193;48.884;9.182;2023-06-04T05:41:49;18.50;41.20
20066;DHT22;10193;48.884;9.182;2023-06-04T05:44:16;18.60;41.60
20066;DHT22;10193;48.884;9.182;2023-06-04T05:46:42;18.70;42.60
20066;DHT22;10193;48.884;9.182;2023-06-04T05:49:09;19.00;42.90
20066;DHT22;10193;48.884;9.182;2023-06-04T05:51:37;19.30;42.90
20066;DHT22;10193;48.884;9.182;2023-06-04T05:54:04;19.60;42.90
20066;DHT22;10193;48.884;9.182;2023-06-04T05:56:31;20.00;42.90
20066;DHT22;10193;48.884;9.182;2023-06-04T05:58:57;20.40;43.30
20066;DHT22;10193;48.884;9.182;2023-06-04T06:01:24;20.80;43.20
20066;DHT22;10193;48.884;9.182;2023-06-04T06:03:50;21.20;43.40
20066;DHT22;10193;48.884;9.182;2023-06-04T06:06:17;21.60;43.60
20066;DHT22;10193;48.884;9.182;2023-06-04T06:08:47;22.00;43.70
20066;DHT22;10193;48.884;9.182;2023-06-04T06:11:15;22.40;44.00
20066;DHT22;10193;48.884;9.182;2023-06-04T06:13:41;22.70;43.60
20066;DHT22;10193;48.884;9.182;2023-06-04T06:16:08;23.10;43.20
20066;DHT22;10193;48.884;9.182;2023-06-04T06:18:35;23.50;42.50
20066;DHT22;10193;48.884;9.182;2023-06-04T06:21:01;23.70;41.60
20066;DHT22;10193;48.884;9.182;2023-06-04T06:23:28;23.80;41.00
20066;DHT22;10193;48.884;9.182;2023-06-04T06:25:56;23.90;40.40
20066;DHT22;10193;48.884;9.182;2023-06-04T06:28:24;23.90;40.10
20066;DHT22;10193;48.884;9.182;2023-06-04T06:30:51;23.90;40.30
20066;DHT22;10193;48.884;9.182;2023-06-04T06:33:18;24.00;40.30
20066;DHT22;10193;48.884;9.182;2023-06-04T06:35:47;24.10;40.20
20066;DHT22;10193;48.884;9.182;2023-06-04T06:38:13;24.10;40.50
20066;DHT22;10193;48.884;9.182;2023-06-04T06:40:40;24.30;40.80
20066;DHT22;10193;48.884;9.182;2023-06-04T06:43:08;24.40;40.90
20066;DHT22;10193;48.884;9.182;2023-06-04T06:45:36;24.60;41.10
20066;DHT22;10193;48.884;9.182;2023-06-04T06:48:03;24.80;40.80
20066;DHT22;10193;48.884;9.182;2023-06-04T06:50:30;25.00;40.20
20066;DHT22;10193;48.884;9.182;2023-06-04T06:52:57;25.10;39.90
20066;DHT22;10193;48.884;9.182;2023-06-04T06:55:23;25.10;39.30
20066;DHT22;10193;48.884;9.182;2023-06-04T06:57:50;25.20;39.30
20066;DHT22;10193;48.884;9.182;2023-06-04T07:00:18;25.20;39.30
20066;DHT22;10193;48.884;9.182;2023-06-04T07:02:45;25.20;39.20
20066;DHT22;10193;48.884;9.182;2023-06-04T07:05:12;25.10;39.20
20066;DHT22;10193;48.884;9.182;2023-06-04T07:07:39;25.10;39.50
20066;DHT22;10193;48.884;9.182;2023-06-04T07:10:07;25.10;39.80
20066;DHT22;10193;48.884;9.182;2023-06-04T07:12:33;25.10;39.60
20066;DHT22;10193;48.884;9.182;2023-06-04T07:15:00;25.00;39.30
20066;DHT22;10193;48.884;9.182;2023-06-04T07:17:28;25.00;38.90
20066;DHT22;10193;48.884;9.182;2023-06-04T07:19:55;24.90;38.50
20066;DHT22;10193;48.884;9.182;2023-06-04T07:22:22;24.80;38.90
20066;DHT22;10193;48.884;9.182;2023-06-04T07:24:48;24.70;39.00
20066;DHT22;10193;48.884;9.182;2023-06-04T07:27:16;24.70;39.00
20066;DHT22;10193;48.884;9.182;2023-06-04T07:29:43;24.70;38.50
20066;DHT22;10193;48.884;9.182;2023-06-04T07:32:11;24.60;38.60
20066;DHT22;10193;48.884;9.182;2023-06-04T07:34:39;24.50;38.40
20066;DHT22;10193;48.884;9.182;2023-06-04T07:37:06;24.50;38.70
20066;DHT22;10193;48.884;9.182;2023-06-04T07:39:35;24.40;38.30
20066;DHT22;10193;48.884;9.182;2023-06-04T07:42:02;24.40;38.10
20066;DHT22;10193;48.884;9.182;2023-06-04T07:44:28;24.30;37.90
20066;DHT22;10193;48.884;9.182;2023-06-04T07:46:55;24.20;37.90
20066;DHT22;10193;48.884;9.182;2023-06-04T07:49:22;24.10;38.00
20066;DHT22;10193;48.884;9.182;2023-06-04T07:51:50;24.10;38.40
20066;DHT22;10193;48.884;9.182;2023-06-04T07:54:17;24.00;38.60
20066;DHT22;10193;48.884;9.182;2023-06-04T07:56:43;24.00;38.90
20066;DHT22;10193;48.884;9.182;2023-06-04T07:59:10;24.00;39.00
20066;DHT22;10193;48.884;9.182;2023-06-04T08:01:37;24.00;39.20
20066;DHT22;10193;48.884;9.182;2023-06-04T08:04:03;24.10;39.10
20066;DHT22;10193;48.884;9.182;2023-06-04T08:06:30;24.10;38.80
20066;DHT22;10193;48.884;9.182;2023-06-04T08:09:00;24.20;38.50
20066;DHT22;10193;48.884;9.182;2023-06-04T08:11:26;24.20;38.40
20066;DHT22;10193;48.884;9.182;2023-06-04T08:13:53;24.20;38.30
20066;DHT22;10193;48.884;9.182;2023-06-04T08:16:20;24.20;38.40
20066;DHT22;10193;48.884;9.182;2023-06-04T08:18:46;24.30;38.50
20066;DHT22;10193;48.884;9.182;2023-06-04T08:21:13;24.30;38.30
20066;DHT22;10193;48.884;9.182;2023-06-04T08:23:42;24.30;38.20
20066;DHT22;10193;48.884;9.182;2023-06-04T08:26:10;24.30;38.00
20066;DHT22;10193;48.884;9.182;2023-06-04T08:28:37;24.30;37.80
20066;DHT22;10193;48.884;9.182;2023-06-04T08:31:04;24.20;37.50
20066;DHT22;10193;48.884;9.182;2023-06-04T08:33:31;24.20;37.40
20066;DHT22;10193;48.884;9.182;2023-06-04T08:35:57;24.10;37.20
20066;DHT22;10193;48.884;9.182;2023-06-04T08:38:24;24.00;37.30
20066;DHT22;10193;48.884;9.182;2023-06-04T08:40:52;23.90;37.20
20066;DHT22;10193;48.884;9.182;2023-06-04T08:43:21;23.80;37.30
20066;DHT22;10193;48.884;9.182;2023-06-04T08:45:49;23.70;37.50
20066;DHT22;10193;48.884;9.182;2023-06-04T08:48:18;23.70;37.60
20066;DHT22;10193;48.884;9.182;2023-06-04T08:50:48;23.60;37.70
20066;DHT22;10193;48.884;9.182;2023-06-04T08:53:16;23.60;37.80
20066;DHT22;10193;48.884;9.182;2023-06-04T08:55:42;23.60;37.90
20066;DHT22;10193;48.884;9.182;2023-06-04T08:58:10;23.50;37.90
20066;DHT22;10193;48.884;9.182;2023-06-04T09:00:39;23.50;38.00
20066;DHT22;10193;48.884;9.182;2023-06-04T09:03:06;23.50;38.10
20066;DHT22;10193;48.884;9.182;2023-06-04T09:05:33;23.50;38.10
20066;DHT22;10193;48.884;9.182;2023-06-04T09:08:01;23.60;38.10
20066;DHT22;10193;48.884;9.182;2023-06-04T09:10:31;23.60;37.90
20066;DHT22;10193;48.884;9.182;2023-06-04T09:13:01;23.70;37.80
20066;DHT22;10193;48.884;9.182;2023-06-04T09:15:28;23.70;37.60
20066;DHT22;10193;48.884;9.182;2023-06-04T09:17:56;23.70;37.50
20066;DHT22;10193;48.884;9.182;2023-06-04T09:20:24;23.70;37.50
20066;DHT22;10193;48.884;9.182;2023-06-04T09:22:51;23.70;37.50
20066;DHT22;10193;48.884;9.182;2023-06-04T09:25:22;23.80;37.60
20066;DHT22;10193;48.884;9.182;2023-06-04T09:27:50;23.80;37.40
20066;DHT22;10193;48.884;9.182;2023-06-04T09:30:17;23.80;37.40
20066;DHT22;10193;48.884;9.182;2023-06-04T09:32:44;23.90;37.40
20066;DHT22;10193;48.884;9.182;2023-06-04T09:35:14;24.00;37.50
20066;DHT22;10193;48.884;9.182;2023-06-04T09:37:41;24.00;37.50
20066;DHT22;10193;48.884;9.182;2023-06-04T09:40:09;24.10;37.50
20066;DHT22;10193;48.884;9.182;2023-06-04T09:42:43;24.10;37.40
20066;DHT22;10193;48.884;9.182;2023-06-04T09:45:10;24.20;37.20
20066;DHT22;10193;48.884;9.182;2023-06-04T09:47:41;24.30;37.30
20066;DHT22;10193;48.884;9.182;2023-06-04T09:50:10;24.30;37.20
20066;DHT22;10193;48.884;9.182;2023-06-04T09:52:38;24.40;37.10
20066;DHT22;10193;48.884;9.182;2023-06-04T09:55:15;24.40;37.00
20066;DHT22;10193;48.884;9.182;2023-06-04T09:57:44;24.40;36.50
20066;DHT22;10193;48.884;9.182;2023-06-04T10:00:14;24.50;36.90
20066;DHT22;10193;48.884;9.182;2023-06-04T10:02:43;24.60;36.80
20066;DHT22;10193;48.884;9.182;2023-06-04T10:05:11;24.60;36.80
20066;DHT22;10193;48.884;9.182;2023-06-04T10:07:43;24.70;36.80
20066;DHT22;10193;48.884;9.182;2023-06-04T10:10:11;24.70;36.80
20066;DHT22;10193;48.884;9.182;2023-06-04T10:12:41;24.80;36.70
20066;DHT22;10193;48.884;9.182;2023-06-04T10:15:11;24.80;36.70
20066;DHT22;10193;48.884;9.182;2023-06-04T10:17:38;24.90;36.60
20066;DHT22;10193;48.884;9.182;2023-06-04T10:20:06;24.90;36.60
20066;DHT22;10193;48.884;9.182;2023-06-04T10:22:34;25.00;36.60
20066;DHT22;10193;48.884;9.182;2023-06-04T10:25:02;25.00;36.50
20066;DHT22;10193;48.884;9.182;2023-06-04T10:27:30;25.10;36.20
20066;DHT22;10193;48.884;9.182;2023-06-04T10:29:57;25.20;36.20
20066;DHT22;10193;48.884;9.182;2023-06-04T10:32:27;25.30;36.10
20066;DHT22;10193;48.884;9.182;2023-06-04T10:34:54;25.30;35.90
20066;DHT22;10193;48.884;9.182;2023-06-04T10:37:23;25.40;35.80
20066;DHT22;10193;48.884;9.182;2023-06-04T10:39:51;25.40;35.60
20066;DHT22;10193;48.884;9.182;2023-06-04T10:42:20;25.40;35.40
20066;DHT22;10193;48.884;9.182;2023-06-04T10:44:49;25.40;35.40
20066;DHT22;10193;48.884;9.182;2023-06-04T10:47:20;25.40;35.30
20066;DHT22;10193;48.884;9.182;2023-06-04T10:49:49;25.50;35.20
20066;DHT22;10193;48.884;9.182;2023-06-04T10:52:16;25.50;35.10
20066;DHT22;10193;48.884;9.182;2023-06-04T10:54:45;25.50;34.90
20066;DHT22;10193;48.884;9.182;2023-06-04T10:57:15;25.50;34.60
20066;DHT22;10193;48.884;9.182;2023-06-04T10:59:53;25.50;34.70
20066;DHT22;10193;48.884;9.182;2023-06-04T11:02:20;25.50;34.40
20066;DHT22;10193;48.884;9.182;2023-06-04T11:04:46;25.60;34.70
20066;DHT22;10193;48.884;9.182;2023-06-04T11:07:14;25.60;34.70
20066;DHT22;10193;48.884;9.182;2023-06-04T11:09:48;25.60;34.60
20066;DHT22;10193;48.884;9.182;2023-06-04T11:12:15;25.60;34.30
20066;DHT22;10193;48.884;9.182;2023-06-04T11:14:54;25.70;34.50
20066;DHT22;10193;48.884;9.182;2023-06-04T11:17:21;25.70;34.10
20066;DHT22;10193;48.884;9.182;2023-06-04T11:19:49;25.80;34.30
20066;DHT22;10193;48.884;9.182;2023-06-04T11:22:15;25.80;34.00
20066;DHT22;10193;48.884;9.182;2023-06-04T11:24:42;25.80;33.90
20066;DHT22;10193;48.884;9.182;2023-06-04T11:27:09;25.80;33.90
20066;DHT22;10193;48.884;9.182;2023-06-04T11:29:36;25.80;34.00
20066;DHT22;10193;48.884;9.182;2023-06-04T11:32:05;25.90;34.00
20066;DHT22;10193;48.884;9.182;2023-06-04T11:34:32;25.90;34.00
20066;DHT22;10193;48.884;9.182;2023-06-04T11:37:08;25.90;33.80
20066;DHT22;10193;48.884;9.182;2023-06-04T11:39:35;25.90;33.50
20066;DHT22;10193;48.884;9.182;2023-06-04T11:42:05;26.00;33.90
20066;DHT22;10193;48.884;9.182;2023-06-04T11:44:33;26.10;33.80
20066;DHT22;10193;48.884;9.182;2023-06-04T11:47:00;26.10;33.60
20066;DHT22;10193;48.884;9.182;2023-06-04T11:49:28;26.10;33.50
20066;DHT22;10193;48.884;9.182;2023-06-04T11:51:55;26.10;33.50
20066;DHT22;10193;48.884;9.182;2023-06-04T11:54:22;26.20;33.50
20066;DHT22;10193;48.884;9.182;2023-06-04T11:56:49;26.20;33.40
20066;DHT22;10193;48.884;9.182;2023-06-04T11:59:17;26.20;33.40
20066;DHT22;10193;48.884;9.182;2023-06-04T12:01:45;26.20;33.40
20066;DHT22;10193;48.884;9.182;2023-06-04T12:04:12;26.30;33.40
20066;DHT22;10193;48.884;9.182;2023-06-04T12:06:50;26.30;33.40
20066;DHT22;10193;48.884;9.182;2023-06-04T12:09:20;26.30;33.30
20066;DHT22;10193;48.884;9.182;2023-06-04T12:11:48;26.40;33.40
20066;DHT22;10193;48.884;9.182;2023-06-04T12:14:16;26.40;33.20
20066;DHT22;10193;48.884;9.182;2023-06-04T12:16:44;26.40;33.00
20066;DHT22;10193;48.884;9.182;2023-06-04T12:19:20;26.50;32.90
20066;DHT22;10193;48.884;9.182;2023-06-04T12:21:59;26.50;32.70
20066;DHT22;10193;48.884;9.182;2023-06-04T12:24:27;26.50;32.40
20066;DHT22;10193;48.884;9.182;2023-06-04T12:27:02;26.60;32.60
20066;DHT22;10193;48.884;9.182;2023-06-04T12:29:29;26.60;32.30
20066;DHT22;10193;48.884;9.182;2023-06-04T12:32:03;26.60;32.00
20066;DHT22;10193;48.884;9.182;2023-06-04T12:34:31;26.60;31.80
20066;DHT22;10193;48.884;9.182;2023-06-04T12:36:59;26.60;32.00
20066;DHT22;10193;48.884;9.182;2023-06-04T12:39:26;26.60;32.10
20066;DHT22;10193;48.884;9.182;2023-06-04T12:41:52;26.60;32.10
20066;DHT22;10193;48.884;9.182;2023-06-04T12:44:19;26.60;32.10
20066;DHT22;10193;48.884;9.182;2023-06-04T12:46:46;26.70;32.20
20066;DHT22;10193;48.884;9.182;2023-06-04T12:49:13;26.70;32.10
20066;DHT22;10193;48.884;9.182;2023-06-04T12:51:40;26.70;32.00
20066;DHT22;10193;48.884;9.182;2023-06-04T12:54:08;26.80;31.80
20066;DHT22;10193;48.884;9.182;2023-06-04T12:56:34;26.80;31.70
20066;DHT22;10193;48.884;9.182;2023-06-04T12:59:01;26.80;31.40
20066;DHT22;10193;48.884;9.182;2023-06-04T13:01:28;26.80;31.30
20066;DHT22;10193;48.884;9.182;2023-06-04T13:03:55;26.80;31.20
20066;DHT22;10193;48.884;9.182;2023-06-04T13:06:21;26.80;31.00
20066;DHT22;10193;48.884;9.182;2023-06-04T13:08:48;26.80;31.00
20066;DHT22;10193;48.884;9.182;2023-06-04T13:11:16;26.80;31.10
20066;DHT22;10193;48.884;9.182;2023-06-04T13:13:43;26.80;31.00
20066;DHT22;10193;48.884;9.182;2023-06-04T13:16:09;26.90;30.90
20066;DHT22;10193;48.884;9.182;2023-06-04T13:18:36;26.90;30.40
20066;DHT22;10193;48.884;9.182;2023-06-04T13:21:03;26.90;30.40
20066;DHT22;10193;48.884;9.182;2023-06-04T13:23:29;26.90;30.30
20066;DHT22;10193;48.884;9.182;2023-06-04T13:25:56;26.90;30.40
20066;DHT22;10193;48.884;9.182;2023-06-04T13:28:24;26.90;30.50
20066;DHT22;10193;48.884;9.182;2023-06-04T13:30:51;26.80;30.10
20066;DHT22;10193;48.884;9.182;2023-06-04T13:33:18;26.90;30.10
20066;DHT22;10193;48.884;9.182;2023-06-04T13:35:47;26.90;30.00
20066;DHT22;10193;48.884;9.182;2023-06-04T13:38:13;26.90;30.00
20066;DHT22;10193;48.884;9.182;2023-06-04T13:40:40;26.90;30.00
20066;DHT22;10193;48.884;9.182;2023-06-04T13:43:08;26.90;30.00
20066;DHT22;10193;48.884;9.182;2023-06-04T13:45:36;26.90;29.90
20066;DHT22;10193;48.884;9.182;2023-06-04T13:48:03;26.90;30.00
20066;DHT22;10193;48.884;9.182;2023-06-04T13:50:32;27.00;30.00
20066;DHT22;10193;48.884;9.182;2023-06-04T13:52:59;27.00;30.00
20066;DHT22;10193;48.884;9.182;2023-06-04T13:55:26;27.10;30.00
20066;DHT22;10193;48.884;9.182;2023-06-04T13:57:52;27.10;30.00
20066;DHT22;10193;48.884;9.182;2023-06-04T14:00:19;27.10;29.90
20066;DHT22;10193;48.884;9.182;2023-06-04T14:02:48;27.10;29.80
20066;DHT22;10193;48.884;9.182;2023-06-04T14:05:15;27.20;29.60
20066;DHT22;10193;48.884;9.182;2023-06-04T14:07:43;27.20;29.50
20066;DHT22;10193;48.884;9.182;2023-06-04T14:10:09;27.20;29.40
20066;DHT22;10193;48.884;9.182;2023-06-04T14:12:37;27.20;29.30
20066;DHT22;10193;48.884;9.182;2023-06-04T14:15:05;27.20;29.10
20066;DHT22;10193;48.884;9.182;2023-06-04T14:17:32;27.20;29.10
20066;DHT22;10193;48.884;9.182;2023-06-04T14:20:01;27.20;29.30
20066;DHT22;10193;48.884;9.182;2023-06-04T14:22:32;27.20;29.30
20066;DHT22;10193;48.884;9.182;2023-06-04T14:24:59;27.20;29.40
20066;DHT22;10193;48.884;9.182;2023-06-04T14:27:26;27.20;29.40
20066;DHT22;10193;48.884;9.182;2023-06-04T14:29:54;27.20;29.20
20066;DHT22;10193;48.884;9.182;2023-06-04T14:32:21;27.20;29.10
20066;DHT22;10193;48.884;9.182;2023-06-04T14:34:48;27.30;29.20
20066;DHT22;10193;48.884;9.182;2023-06-04T14:37:16;27.30;29.10
20066;DHT22;10193;48.884;9.182;2023-06-04T14:39:45;27.30;29.10
20066;DHT22;10193;48.884;9.182;2023-06-04T14:42:11;27.30;29.00
20066;DHT22;10193;48.884;9.182;2023-06-04T14:44:38;27.20;28.90
20066;DHT22;10193;48.884;9.182;2023-06-04T14:47:05;27.20;29.00
20066;DHT22;10193;48.884;9.182;2023-06-04T14:49:32;27.10;28.90
20066;DHT22;10193;48.884;9.182;2023-06-04T14:51:58;27.10;28.90
20066;DHT22;10193;48.884;9.182;2023-06-04T14:54:27;27.10;29.00
20066;DHT22;10193;48.884;9.182;2023-06-04T14:56:55;27.10;28.90
20066;DHT22;10193;48.884;9.182;2023-06-04T14:59:21;27.00;28.80
20066;DHT22;10193;48.884;9.182;2023-06-04T15:01:48;27.00;28.90
20066;DHT22;10193;48.884;9.182;2023-06-04T15:04:15;27.00;29.00
20066;DHT22;10193;48.884;9.182;2023-06-04T15:06:42;27.00;29.00
20066;DHT22;10193;48.884;9.182;2023-06-04T15:09:09;27.10;28.90
20066;DHT22;10193;48.884;9.182;2023-06-04T15:11:37;27.10;28.80
20066;DHT22;10193;48.884;9.182;2023-06-04T15:14:04;27.10;28.60
20066;DHT22;10193;48.884;9.182;2023-06-04T15:16:30;27.10;28.60
20066;DHT22;10193;48.884;9.182;2023-06-04T15:18:57;27.20;28.50
20066;DHT22;10193;48.884;9.182;2023-06-04T15:21:24;27.20;28.60
20066;DHT22;10193;48.884;9.182;2023-06-04T15:23:50;27.20;28.60
20066;DHT22;10193;48.884;9.182;2023-06-04T15:26:17;27.30;28.60
20066;DHT22;10193;48.884;9.182;2023-06-04T15:28:45;27.30;28.50
20066;DHT22;10193;48.884;9.182;2023-06-04T15:31:12;27.30;28.40
20066;DHT22;10193;48.884;9.182;2023-06-04T15:33:38;27.30;28.40